sensor_id;sensor_type;location;lat;lon;timestamp;P1;durP1;ratioP1;P2;durP2;ratioP2
47882;SDS011;37739;50.350;7.578;2023-02-28T00:01:08;3.30;;;2.50;;
47882;SDS011;37739;50.350;7.578;2023-02-28T00:03:33;4.00;;;3.10;;
47882;SDS011;37739;50.350;7.578;2023-02-28T00:06:05;2.73;;;1.87;;
47882;SDS011;37739;50.350;7.578;2023-02-28T00:08:31;2.23;;;1.90;;
47882;SDS011;37739;50.350;7.578;2023-02-28T00:11:02;2.73;;;2.20;;
47882;SDS011;37739;50.350;7.578;2023-02-28T00:13:33;2.20;;;2.00;;
47882;SDS011;37739;50.350;7.578;2023-02-28T00:16:03;2.37;;;1.53;;
47882;SDS011;37739;50.350;7.578;2023-02-28T00:18:38;2.43;;;1.90;;
47882;SDS011;37739;50.350;7.578;2023-02-28T00:21:03;2.93;;;2.60;;
47882;SDS011;37739;50.350;7.578;2023-02-28T00:23:31;2.10;;;1.87;;
47882;SDS011;37739;50.350;7.578;2023-02-28T00:25:59;1.70;;;1.60;;
47882;SDS011;37739;50.350;7.578;2023-02-28T00:28:29;2.23;;;1.77;;
47882;SDS011;37739;50.350;7.578;2023-02-28T00:30:55;2.50;;;2.30;;
47882;SDS011;37739;50.350;7.578;2023-02-28T00:33:22;3.07;;;2.37;;
47882;SDS011;37739;50.350;7.578;2023-02-28T00:35:48;2.87;;;2.37;;
47882;SDS011;37739;50.350;7.578;2023-02-28T00:38:15;2.47;;;1.90;;
47882;SDS011;37739;50.350;7.578;2023-02-28T00:40:48;2.43;;;2.20;;
47882;SDS011;37739;50.350;7.578;2023-02-28T00:43:14;2.37;;;1.80;;
47882;SDS011;37739;50.350;7.578;2023-02-28T00:45:39;3.47;;;1.90;;
47882;SDS011;37739;50.350;7.578;2023-02-28T00:48:04;2.57;;;2.00;;
47882;SDS011;37739;50.350;7.578;2023-02-28T00:50:31;2.10;;;1.90;;
47882;SDS011;37739;50.350;7.578;2023-02-28T00:52:56;2.23;;;2.03;;
47882;SDS011;37739;50.350;7.578;2023-02-28T00:55:23;2.37;;;2.17;;
47882;SDS011;37739;50.350;7.578;2023-02-28T00:57:51;2.23;;;2.13;;
47882;SDS011;37739;50.350;7.578;2023-02-28T01:00:16;3.07;;;2.20;;
47882;SDS011;37739;50.350;7.578;2023-02-28T01:02:44;2.90;;;2.67;;
47882;SDS011;37739;50.350;7.578;2023-02-28T01:05:10;2.10;;;2.00;;
47882;SDS011;37739;50.350;7.578;2023-02-28T01:07:35;3.93;;;2.63;;
47882;SDS011;37739;50.350;7.578;2023-02-28T01:10:00;2.70;;;2.10;;
47882;SDS011;37739;50.350;7.578;2023-02-28T01:12:28;2.40;;;2.20;;
47882;SDS011;37739;50.350;7.578;2023-02-28T01:14:53;3.00;;;2.70;;
47882;SDS011;37739;50.350;7.578;2023-02-28T01:17:19;3.70;;;2.30;;
47882;SDS011;37739;50.350;7.578;2023-02-28T01:19:44;3.77;;;2.70;;
47882;SDS011;37739;50.350;7.578;2023-02-28T01:22:12;3.03;;;2.70;;
47882;SDS011;37739;50.350;7.578;2023-02-28T01:24:37;2.93;;;2.00;;
47882;SDS011;37739;50.350;7.578;2023-02-28T01:27:05;2.70;;;2.50;;
47882;SDS011;37739;50.350;7.578;2023-02-28T01:29:30;3.03;;;2.60;;
47882;SDS011;37739;50.350;7.578;2023-02-28T01:31:55;3.50;;;2.53;;
47882;SDS011;37739;50.350;7.578;2023-02-28T01:34:24;3.30;;;2.60;;
47882;SDS011;37739;50.350;7.578;2023-02-28T01:36:49;3.70;;;2.70;;
47882;SDS011;37739;50.350;7.578;2023-02-28T01:39:15;2.63;;;2.43;;
47882;SDS011;37739;50.350;7.578;2023-02-28T01:41:40;2.30;;;2.10;;
47882;SDS011;37739;50.350;7.578;2023-02-28T01:44:06;2.90;;;2.70;;
47882;SDS011;37739;50.350;7.578;2023-02-28T01:46:52;3.17;;;2.60;;
47882;SDS011;37739;50.350;7.578;2023-02-28T01:49:17;2.90;;;2.43;;
47882;SDS011;37739;50.350;7.578;2023-02-28T01:51:45;3.67;;;3.37;;
47882;SDS011;37739;50.350;7.578;2023-02-28T01:54:18;3.70;;;3.40;;
47882;SDS011;37739;50.350;7.578;2023-02-28T01:56:57;3.40;;;3.10;;
47882;SDS011;37739;50.350;7.578;2023-02-28T01:59:29;2.80;;;2.60;;
47882;SDS011;37739;50.350;7.578;2023-02-28T02:02:13;5.00;;;2.90;;
47882;SDS011;37739;50.350;7.578;2023-02-28T02:04:43;3.33;;;3.03;;
47882;SDS011;37739;50.350;7.578;2023-02-28T02:07:15;3.40;;;3.07;;
47882;SDS011;37739;50.350;7.578;2023-02-28T02:09:43;2.63;;;2.43;;
47882;SDS011;37739;50.350;7.578;2023-02-28T02:15:19;3.23;;;2.50;;
47882;SDS011;37739;50.350;7.578;2023-02-28T02:17:47;3.00;;;2.70;;
47882;SDS011;37739;50.350;7.578;2023-02-28T02:25:53;3.67;;;2.80;;
47882;SDS011;37739;50.350;7.578;2023-02-28T02:28:43;3.83;;;2.50;;
47882;SDS011;37739;50.350;7.578;2023-02-28T02:31:27;3.60;;;3.07;;
47882;SDS011;37739;50.350;7.578;2023-02-28T02:45:25;3.53;;;2.63;;
47882;SDS011;37739;50.350;7.578;2023-02-28T02:48:01;4.03;;;3.60;;
47882;SDS011;37739;50.350;7.578;2023-02-28T02:50:37;3.90;;;3.60;;
47882;SDS011;37739;50.350;7.578;2023-02-28T02:53:07;2.63;;;2.43;;
47882;SDS011;37739;50.350;7.578;2023-02-28T02:55:36;2.27;;;2.07;;
47882;SDS011;37739;50.350;7.578;2023-02-28T02:58:05;3.60;;;3.27;;
47882;SDS011;37739;50.350;7.578;2023-02-28T03:00:39;2.93;;;2.63;;
47882;SDS011;37739;50.350;7.578;2023-02-28T03:03:10;2.60;;;2.40;;
47882;SDS011;37739;50.350;7.578;2023-02-28T03:05:49;2.30;;;2.03;;
47882;SDS011;37739;50.350;7.578;2023-02-28T03:08:17;3.10;;;2.80;;
47882;SDS011;37739;50.350;7.578;2023-02-28T03:10:46;3.97;;;2.90;;
47882;SDS011;37739;50.350;7.578;2023-02-28T03:27:45;3.33;;;2.80;;
47882;SDS011;37739;50.350;7.578;2023-02-28T03:30:22;3.77;;;2.70;;
47882;SDS011;37739;50.350;7.578;2023-02-28T03:32:58;2.60;;;2.40;;
47882;SDS011;37739;50.350;7.578;2023-02-28T03:35:28;3.37;;;3.07;;
47882;SDS011;37739;50.350;7.578;2023-02-28T03:38:05;3.03;;;2.73;;
47882;SDS011;37739;50.350;7.578;2023-02-28T03:40:39;3.00;;;2.60;;
47882;SDS011;37739;50.350;7.578;2023-02-28T03:43:11;4.53;;;4.13;;
47882;SDS011;37739;50.350;7.578;2023-02-28T03:45:44;3.17;;;2.87;;
47882;SDS011;37739;50.350;7.578;2023-02-28T03:48:20;3.40;;;2.60;;
47882;SDS011;37739;50.350;7.578;2023-02-28T03:50:53;3.63;;;2.70;;
47882;SDS011;37739;50.350;7.578;2023-02-28T03:59:07;3.30;;;2.80;;
47882;SDS011;37739;50.350;7.578;2023-02-28T04:01:47;3.20;;;2.90;;
47882;SDS011;37739;50.350;7.578;2023-02-28T04:04:13;2.93;;;2.53;;
47882;SDS011;37739;50.350;7.578;2023-02-28T04:06:40;5.97;;;2.70;;
47882;SDS011;37739;50.350;7.578;2023-02-28T04:09:07;4.37;;;3.13;;
47882;SDS011;37739;50.350;7.578;2023-02-28T04:11:35;6.00;;;3.13;;
47882;SDS011;37739;50.350;7.578;2023-02-28T04:14:07;3.23;;;2.63;;
47882;SDS011;37739;50.350;7.578;2023-02-28T04:16:34;3.70;;;3.30;;
47882;SDS011;37739;50.350;7.578;2023-02-28T04:19:02;3.03;;;2.70;;
47882;SDS011;37739;50.350;7.578;2023-02-28T04:21:31;2.93;;;2.63;;
47882;SDS011;37739;50.350;7.578;2023-02-28T04:23:58;3.87;;;2.60;;
47882;SDS011;37739;50.350;7.578;2023-02-28T04:26:29;3.20;;;2.80;;
47882;SDS011;37739;50.350;7.578;2023-02-28T04:28:55;2.93;;;2.73;;
47882;SDS011;37739;50.350;7.578;2023-02-28T04:31:21;3.90;;;2.87;;
47882;SDS011;37739;50.350;7.578;2023-02-28T04:33:48;3.10;;;2.90;;
47882;SDS011;37739;50.350;7.578;2023-02-28T04:36:16;2.10;;;1.90;;
47882;SDS011;37739;50.350;7.578;2023-02-28T04:38:48;3.20;;;2.80;;
47882;SDS011;37739;50.350;7.578;2023-02-28T04:41:18;2.63;;;2.43;;
47882;SDS011;37739;50.350;7.578;2023-02-28T04:43:45;3.67;;;2.80;;
47882;SDS011;37739;50.350;7.578;2023-02-28T04:46:10;3.33;;;2.70;;
47882;SDS011;37739;50.350;7.578;2023-02-28T04:48:42;3.50;;;2.57;;
47882;SDS011;37739;50.350;7.578;2023-02-28T04:51:10;3.57;;;3.27;;
47882;SDS011;37739;50.350;7.578;2023-02-28T04:53:40;3.60;;;3.10;;
47882;SDS011;37739;50.350;7.578;2023-02-28T04:56:13;2.93;;;2.70;;
47882;SDS011;37739;50.350;7.578;2023-02-28T04:58:40;3.00;;;2.70;;
47882;SDS011;37739;50.350;7.578;2023-02-28T05:01:07;3.40;;;2.83;;
47882;SDS011;37739;50.350;7.578;2023-02-28T05:03:49;3.33;;;2.80;;
47882;SDS011;37739;50.350;7.578;2023-02-28T05:06:16;2.97;;;2.67;;
47882;SDS011;37739;50.350;7.578;2023-02-28T05:08:42;3.60;;;3.30;;
47882;SDS011;37739;50.350;7.578;2023-02-28T05:11:17;5.10;;;3.90;;
47882;SDS011;37739;50.350;7.578;2023-02-28T05:13:47;4.20;;;3.07;;
47882;SDS011;37739;50.350;7.578;2023-02-28T05:16:16;3.10;;;2.63;;
47882;SDS011;37739;50.350;7.578;2023-02-28T05:18:42;3.43;;;3.13;;
47882;SDS011;37739;50.350;7.578;2023-02-28T05:21:24;3.03;;;2.70;;
47882;SDS011;37739;50.350;7.578;2023-02-28T05:23:52;3.30;;;3.00;;
47882;SDS011;37739;50.350;7.578;2023-02-28T05:26:19;3.23;;;2.90;;
47882;SDS011;37739;50.350;7.578;2023-02-28T05:28:47;5.10;;;3.40;;
47882;SDS011;37739;50.350;7.578;2023-02-28T05:31:15;3.60;;;3.00;;
47882;SDS011;37739;50.350;7.578;2023-02-28T05:33:40;3.20;;;2.90;;
47882;SDS011;37739;50.350;7.578;2023-02-28T05:36:08;3.80;;;3.40;;
47882;SDS011;37739;50.350;7.578;2023-02-28T05:38:33;3.57;;;3.27;;
47882;SDS011;37739;50.350;7.578;2023-02-28T05:41:04;3.47;;;3.17;;
47882;SDS011;37739;50.350;7.578;2023-02-28T05:43:31;3.90;;;3.00;;
47882;SDS011;37739;50.350;7.578;2023-02-28T05:45:58;3.83;;;3.40;;
47882;SDS011;37739;50.350;7.578;2023-02-28T05:48:26;3.20;;;2.90;;
47882;SDS011;37739;50.350;7.578;2023-02-28T05:50:54;2.50;;;2.30;;
47882;SDS011;37739;50.350;7.578;2023-02-28T05:53:22;3.20;;;2.90;;
47882;SDS011;37739;50.350;7.578;2023-02-28T05:55:50;4.27;;;3.87;;
47882;SDS011;37739;50.350;7.578;2023-02-28T05:58:17;3.13;;;2.93;;
47882;SDS011;37739;50.350;7.578;2023-02-28T06:00:46;3.70;;;3.40;;
47882;SDS011;37739;50.350;7.578;2023-02-28T06:03:11;3.77;;;3.47;;
47882;SDS011;37739;50.350;7.578;2023-02-28T06:05:39;3.43;;;3.13;;
47882;SDS011;37739;50.350;7.578;2023-02-28T06:08:09;3.73;;;3.37;;
47882;SDS011;37739;50.350;7.578;2023-02-28T06:10:34;2.67;;;2.47;;
47882;SDS011;37739;50.350;7.578;2023-02-28T06:13:00;2.83;;;2.63;;
47882;SDS011;37739;50.350;7.578;2023-02-28T06:15:27;4.00;;;3.43;;
47882;SDS011;37739;50.350;7.578;2023-02-28T06:17:53;3.70;;;3.20;;
47882;SDS011;37739;50.350;7.578;2023-02-28T06:20:22;2.83;;;2.60;;
47882;SDS011;37739;50.350;7.578;2023-02-28T06:22:51;3.57;;;3.13;;
47882;SDS011;37739;50.350;7.578;2023-02-28T06:25:16;3.00;;;2.70;;
47882;SDS011;37739;50.350;7.578;2023-02-28T06:27:42;3.40;;;2.90;;
47882;SDS011;37739;50.350;7.578;2023-02-28T06:30:11;2.90;;;2.70;;
47882;SDS011;37739;50.350;7.578;2023-02-28T06:32:39;3.10;;;2.80;;
47882;SDS011;37739;50.350;7.578;2023-02-28T06:35:04;3.47;;;2.83;;
47882;SDS011;37739;50.350;7.578;2023-02-28T06:37:30;3.63;;;3.33;;
47882;SDS011;37739;50.350;7.578;2023-02-28T06:39:58;3.73;;;3.20;;
47882;SDS011;37739;50.350;7.578;2023-02-28T06:42:24;3.10;;;2.20;;
47882;SDS011;37739;50.350;7.578;2023-02-28T06:44:53;3.00;;;2.80;;
47882;SDS011;37739;50.350;7.578;2023-02-28T06:47:21;2.70;;;2.47;;
47882;SDS011;37739;50.350;7.578;2023-02-28T06:49:49;3.67;;;3.23;;
47882;SDS011;37739;50.350;7.578;2023-02-28T06:52:17;2.70;;;2.50;;
47882;SDS011;37739;50.350;7.578;2023-02-28T06:54:42;3.20;;;3.00;;
47882;SDS011;37739;50.350;7.578;2023-02-28T06:57:08;4.73;;;3.30;;
47882;SDS011;37739;50.350;7.578;2023-02-28T06:59:33;3.47;;;3.20;;
47882;SDS011;37739;50.350;7.578;2023-02-28T07:02:00;3.37;;;3.17;;
47882;SDS011;37739;50.350;7.578;2023-02-28T07:04:27;3.90;;;3.57;;
47882;SDS011;37739;50.350;7.578;2023-02-28T07:06:55;4.13;;;3.20;;
47882;SDS011;37739;50.350;7.578;2023-02-28T07:09:24;3.73;;;3.20;;
47882;SDS011;37739;50.350;7.578;2023-02-28T07:11:54;2.80;;;2.60;;
47882;SDS011;37739;50.350;7.578;2023-02-28T07:14:22;2.97;;;2.77;;
47882;SDS011;37739;50.350;7.578;2023-02-28T07:16:50;4.67;;;3.07;;
47882;SDS011;37739;50.350;7.578;2023-02-28T07:19:20;4.87;;;3.47;;
47882;SDS011;37739;50.350;7.578;2023-02-28T07:21:46;3.60;;;3.30;;
47882;SDS011;37739;50.350;7.578;2023-02-28T07:24:11;4.00;;;2.70;;
47882;SDS011;37739;50.350;7.578;2023-02-28T07:26:37;3.17;;;2.87;;
47882;SDS011;37739;50.350;7.578;2023-02-28T07:29:04;3.63;;;3.33;;
47882;SDS011;37739;50.350;7.578;2023-02-28T07:31:34;3.53;;;3.23;;
47882;SDS011;37739;50.350;7.578;2023-02-28T07:34:02;3.33;;;2.90;;
47882;SDS011;37739;50.350;7.578;2023-02-28T07:36:29;3.17;;;2.87;;
47882;SDS011;37739;50.350;7.578;2023-02-28T07:38:54;3.40;;;3.10;;
47882;SDS011;37739;50.350;7.578;2023-02-28T07:41:20;3.93;;;3.63;;
47882;SDS011;37739;50.350;7.578;2023-02-28T07:43:49;4.07;;;3.67;;
47882;SDS011;37739;50.350;7.578;2023-02-28T07:46:15;3.80;;;3.30;;
47882;SDS011;37739;50.350;7.578;2023-02-28T07:48:41;3.23;;;2.93;;
47882;SDS011;37739;50.350;7.578;2023-02-28T07:51:07;5.33;;;3.60;;
47882;SDS011;37739;50.350;7.578;2023-02-28T07:53:33;4.70;;;3.50;;
47882;SDS011;37739;50.350;7.578;2023-02-28T07:56:01;4.90;;;3.37;;
47882;SDS011;37739;50.350;7.578;2023-02-28T07:58:28;3.40;;;3.03;;
47882;SDS011;37739;50.350;7.578;2023-02-28T08:00:54;2.80;;;2.53;;
47882;SDS011;37739;50.350;7.578;2023-02-28T08:03:23;3.90;;;3.03;;
47882;SDS011;37739;50.350;7.578;2023-02-28T08:05:51;4.30;;;3.50;;
47882;SDS011;37739;50.350;7.578;2023-02-28T08:08:17;3.80;;;3.40;;
47882;SDS011;37739;50.350;7.578;2023-02-28T08:10:44;3.77;;;3.40;;
47882;SDS011;37739;50.350;7.578;2023-02-28T08:13:15;4.00;;;3.27;;
47882;SDS011;37739;50.350;7.578;2023-02-28T08:15:43;6.27;;;2.90;;
47882;SDS011;37739;50.350;7.578;2023-02-28T08:18:12;3.40;;;3.10;;
47882;SDS011;37739;50.350;7.578;2023-02-28T08:20:39;4.07;;;3.67;;
47882;SDS011;37739;50.350;7.578;2023-02-28T08:23:05;3.27;;;2.97;;
47882;SDS011;37739;50.350;7.578;2023-02-28T08:25:30;4.60;;;4.10;;
47882;SDS011;37739;50.350;7.578;2023-02-28T08:27:55;5.33;;;3.20;;
47882;SDS011;37739;50.350;7.578;2023-02-28T08:30:21;4.93;;;2.90;;
47882;SDS011;37739;50.350;7.578;2023-02-28T08:32:46;2.80;;;2.60;;
47882;SDS011;37739;50.350;7.578;2023-02-28T08:35:14;3.80;;;3.17;;
47882;SDS011;37739;50.350;7.578;2023-02-28T08:37:42;4.10;;;3.17;;
47882;SDS011;37739;50.350;7.578;2023-02-28T08:40:07;4.70;;;3.40;;
47882;SDS011;37739;50.350;7.578;2023-02-28T08:42:35;3.93;;;3.63;;
47882;SDS011;37739;50.350;7.578;2023-02-28T08:45:01;3.90;;;3.60;;
47882;SDS011;37739;50.350;7.578;2023-02-28T08:47:26;4.13;;;3.83;;
47882;SDS011;37739;50.350;7.578;2023-02-28T08:49:54;3.77;;;3.40;;
47882;SDS011;37739;50.350;7.578;2023-02-28T08:52:19;3.10;;;2.90;;
47882;SDS011;37739;50.350;7.578;2023-02-28T08:54:47;3.60;;;3.30;;
47882;SDS011;37739;50.350;7.578;2023-02-28T08:57:14;3.43;;;3.00;;
47882;SDS011;37739;50.350;7.578;2023-02-28T08:59:40;3.40;;;3.10;;
47882;SDS011;37739;50.350;7.578;2023-02-28T09:02:08;3.57;;;3.27;;
47882;SDS011;37739;50.350;7.578;2023-02-28T09:04:39;3.70;;;3.27;;
47882;SDS011;37739;50.350;7.578;2023-02-28T09:07:05;3.13;;;2.93;;
47882;SDS011;37739;50.350;7.578;2023-02-28T09:09:31;5.00;;;3.10;;
47882;SDS011;37739;50.350;7.578;2023-02-28T09:11:57;3.43;;;3.13;;
47882;SDS011;37739;50.350;7.578;2023-02-28T09:14:25;3.30;;;3.00;;
47882;SDS011;37739;50.350;7.578;2023-02-28T09:16:52;4.07;;;3.50;;
47882;SDS011;37739;50.350;7.578;2023-02-28T09:19:17;2.70;;;2.50;;
47882;SDS011;37739;50.350;7.578;2023-02-28T09:21:43;3.63;;;3.33;;
47882;SDS011;37739;50.350;7.578;2023-02-28T09:24:13;3.30;;;2.97;;
47882;SDS011;37739;50.350;7.578;2023-02-28T09:26:40;3.57;;;3.03;;
47882;SDS011;37739;50.350;7.578;2023-02-28T09:29:05;2.90;;;2.70;;
47882;SDS011;37739;50.350;7.578;2023-02-28T09:31:31;3.80;;;3.27;;
47882;SDS011;37739;50.350;7.578;2023-02-28T09:33:57;3.90;;;3.30;;
47882;SDS011;37739;50.350;7.578;2023-02-28T09:36:24;4.40;;;3.33;;
47882;SDS011;37739;50.350;7.578;2023-02-28T09:38:51;4.07;;;3.50;;
47882;SDS011;37739;50.350;7.578;2023-02-28T09:41:21;2.90;;;2.70;;
47882;SDS011;37739;50.350;7.578;2023-02-28T09:43:55;3.47;;;3.00;;
47882;SDS011;37739;50.350;7.578;2023-02-28T09:46:38;3.13;;;2.87;;
47882;SDS011;37739;50.350;7.578;2023-02-28T09:49:10;3.03;;;2.67;;
47882;SDS011;37739;50.350;7.578;2023-02-28T09:54:17;3.73;;;3.33;;
47882;SDS011;37739;50.350;7.578;2023-02-28T09:56:50;3.57;;;3.27;;
47882;SDS011;37739;50.350;7.578;2023-02-28T10:05:19;3.10;;;2.80;;
47882;SDS011;37739;50.350;7.578;2023-02-28T10:15:51;3.27;;;3.00;;
47882;SDS011;37739;50.350;7.578;2023-02-28T10:18:23;3.33;;;2.80;;
47882;SDS011;37739;50.350;7.578;2023-02-28T10:20:55;3.50;;;3.20;;
47882;SDS011;37739;50.350;7.578;2023-02-28T10:23:34;3.23;;;2.90;;
47882;SDS011;37739;50.350;7.578;2023-02-28T10:26:20;4.30;;;2.90;;
47882;SDS011;37739;50.350;7.578;2023-02-28T10:28:48;3.47;;;3.13;;
47882;SDS011;37739;50.350;7.578;2023-02-28T10:31:19;2.73;;;2.53;;
47882;SDS011;37739;50.350;7.578;2023-02-28T10:33:45;3.20;;;2.90;;
47882;SDS011;37739;50.350;7.578;2023-02-28T10:36:14;5.33;;;2.90;;
47882;SDS011;37739;50.350;7.578;2023-02-28T10:38:42;4.17;;;3.50;;
47882;SDS011;37739;50.350;7.578;2023-02-28T10:41:13;3.50;;;3.20;;
47882;SDS011;37739;50.350;7.578;2023-02-28T10:43:42;3.17;;;2.87;;
47882;SDS011;37739;50.350;7.578;2023-02-28T10:48:56;3.27;;;2.97;;
47882;SDS011;37739;50.350;7.578;2023-02-28T10:51:26;3.23;;;2.93;;
47882;SDS011;37739;50.350;7.578;2023-02-28T10:54:03;3.33;;;2.70;;
47882;SDS011;37739;50.350;7.578;2023-02-28T10:56:41;4.10;;;2.97;;
47882;SDS011;37739;50.350;7.578;2023-02-28T10:59:25;3.80;;;2.90;;
47882;SDS011;37739;50.350;7.578;2023-02-28T11:01:53;3.03;;;2.70;;
47882;SDS011;37739;50.350;7.578;2023-02-28T11:06:47;3.07;;;2.83;;
47882;SDS011;37739;50.350;7.578;2023-02-28T11:09:27;4.60;;;3.20;;
47882;SDS011;37739;50.350;7.578;2023-02-28T11:12:00;3.47;;;3.17;;
47882;SDS011;37739;50.350;7.578;2023-02-28T11:14:30;3.57;;;3.27;;
47882;SDS011;37739;50.350;7.578;2023-02-28T11:17:11;3.23;;;2.93;;
47882;SDS011;37739;50.350;7.578;2023-02-28T11:19:44;3.30;;;3.00;;
47882;SDS011;37739;50.350;7.578;2023-02-28T11:22:11;3.30;;;2.97;;
47882;SDS011;37739;50.350;7.578;2023-02-28T11:24:45;3.40;;;2.87;;
47882;SDS011;37739;50.350;7.578;2023-02-28T11:27:40;3.43;;;3.13;;
47882;SDS011;37739;50.350;7.578;2023-02-28T11:30:59;4.10;;;3.70;;
47882;SDS011;37739;50.350;7.578;2023-02-28T11:36:00;5.43;;;2.80;;
47882;SDS011;37739;50.350;7.578;2023-02-28T11:38:28;4.33;;;3.20;;
47882;SDS011;37739;50.350;7.578;2023-02-28T11:41:06;3.03;;;2.73;;
47882;SDS011;37739;50.350;7.578;2023-02-28T11:52:35;4.20;;;3.80;;
47882;SDS011;37739;50.350;7.578;2023-02-28T11:55:17;3.60;;;3.30;;
47882;SDS011;37739;50.350;7.578;2023-02-28T12:06:54;3.27;;;2.97;;
47882;SDS011;37739;50.350;7.578;2023-02-28T12:14:53;3.03;;;2.73;;
47882;SDS011;37739;50.350;7.578;2023-02-28T12:28:53;2.80;;;2.60;;
47882;SDS011;37739;50.350;7.578;2023-02-28T12:31:34;4.53;;;3.77;;
47882;SDS011;37739;50.350;7.578;2023-02-28T12:34:04;3.57;;;3.13;;
47882;SDS011;37739;50.350;7.578;2023-02-28T12:36:35;3.40;;;3.10;;
47882;SDS011;37739;50.350;7.578;2023-02-28T12:39:10;3.40;;;3.10;;
47882;SDS011;37739;50.350;7.578;2023-02-28T12:41:48;4.03;;;3.67;;
47882;SDS011;37739;50.350;7.578;2023-02-28T12:44:23;3.30;;;3.00;;
47882;SDS011;37739;50.350;7.578;2023-02-28T12:46:59;3.77;;;3.33;;
47882;SDS011;37739;50.350;7.578;2023-02-28T12:49:34;4.00;;;3.23;;
47882;SDS011;37739;50.350;7.578;2023-02-28T12:52:05;3.70;;;3.40;;
47882;SDS011;37739;50.350;7.578;2023-02-28T12:54:38;3.40;;;3.13;;
47882;SDS011;37739;50.350;7.578;2023-02-28T13:00:20;3.43;;;3.13;;
47882;SDS011;37739;50.350;7.578;2023-02-28T13:05:50;4.00;;;3.60;;
47882;SDS011;37739;50.350;7.578;2023-02-28T13:11:01;4.07;;;3.67;;
47882;SDS011;37739;50.350;7.578;2023-02-28T13:13:28;2.80;;;2.60;;
47882;SDS011;37739;50.350;7.578;2023-02-28T13:18:30;3.60;;;3.40;;
47882;SDS011;37739;50.350;7.578;2023-02-28T13:20:56;5.20;;;3.73;;
47882;SDS011;37739;50.350;7.578;2023-02-28T13:26:04;3.77;;;3.33;;
47882;SDS011;37739;50.350;7.578;2023-02-28T13:31:28;3.87;;;3.57;;
47882;SDS011;37739;50.350;7.578;2023-02-28T13:38:52;4.10;;;3.80;;
47882;SDS011;37739;50.350;7.578;2023-02-28T13:46:27;3.83;;;3.53;;
47882;SDS011;37739;50.350;7.578;2023-02-28T13:48:53;4.30;;;3.90;;
47882;SDS011;37739;50.350;7.578;2023-02-28T13:54:51;4.13;;;3.70;;
47882;SDS011;37739;50.350;7.578;2023-02-28T13:57:18;3.67;;;3.37;;
47882;SDS011;37739;50.350;7.578;2023-02-28T14:05:16;4.37;;;3.97;;
47882;SDS011;37739;50.350;7.578;2023-02-28T14:07:51;4.47;;;4.07;;
47882;SDS011;37739;50.350;7.578;2023-02-28T14:10:27;4.67;;;4.20;;
47882;SDS011;37739;50.350;7.578;2023-02-28T14:15:25;5.63;;;4.07;;
47882;SDS011;37739;50.350;7.578;2023-02-28T14:17:55;4.63;;;4.20;;
47882;SDS011;37739;50.350;7.578;2023-02-28T14:20:26;5.47;;;4.30;;
47882;SDS011;37739;50.350;7.578;2023-02-28T14:23:14;4.70;;;3.90;;
47882;SDS011;37739;50.350;7.578;2023-02-28T14:26:03;4.60;;;4.20;;
47882;SDS011;37739;50.350;7.578;2023-02-28T14:29:01;4.40;;;4.00;;
47882;SDS011;37739;50.350;7.578;2023-02-28T14:31:57;4.20;;;3.80;;
47882;SDS011;37739;50.350;7.578;2023-02-28T14:37:29;5.13;;;4.53;;
47882;SDS011;37739;50.350;7.578;2023-02-28T14:39:57;5.10;;;4.63;;
47882;SDS011;37739;50.350;7.578;2023-02-28T14:45:03;5.40;;;4.70;;
47882;SDS011;37739;50.350;7.578;2023-02-28T14:47:32;3.90;;;3.50;;
47882;SDS011;37739;50.350;7.578;2023-02-28T14:50:00;4.67;;;4.23;;
47882;SDS011;37739;50.350;7.578;2023-02-28T14:52:30;4.50;;;4.10;;
47882;SDS011;37739;50.350;7.578;2023-02-28T14:54:58;5.13;;;4.33;;
47882;SDS011;37739;50.350;7.578;2023-02-28T15:00:04;4.53;;;4.13;;
47882;SDS011;37739;50.350;7.578;2023-02-28T15:02:36;4.77;;;4.37;;
47882;SDS011;37739;50.350;7.578;2023-02-28T15:05:28;5.60;;;4.93;;
47882;SDS011;37739;50.350;7.578;2023-02-28T15:08:09;5.70;;;5.10;;
47882;SDS011;37739;50.350;7.578;2023-02-28T15:10:41;4.53;;;4.13;;
47882;SDS011;37739;50.350;7.578;2023-02-28T15:13:12;4.47;;;4.03;;
47882;SDS011;37739;50.350;7.578;2023-02-28T15:21:06;4.77;;;4.27;;
47882;SDS011;37739;50.350;7.578;2023-02-28T15:23:36;5.40;;;4.90;;
47882;SDS011;37739;50.350;7.578;2023-02-28T15:26:04;6.00;;;5.40;;
47882;SDS011;37739;50.350;7.578;2023-02-28T15:28:35;4.20;;;3.90;;
47882;SDS011;37739;50.350;7.578;2023-02-28T15:31:02;4.67;;;4.03;;
47882;SDS011;37739;50.350;7.578;2023-02-28T15:33:53;4.83;;;4.43;;
47882;SDS011;37739;50.350;7.578;2023-02-28T15:36:21;6.23;;;4.70;;
47882;SDS011;37739;50.350;7.578;2023-02-28T15:38:53;4.50;;;3.47;;
47882;SDS011;37739;50.350;7.578;2023-02-28T15:49:28;3.60;;;3.30;;
47882;SDS011;37739;50.350;7.578;2023-02-28T15:52:02;3.80;;;3.50;;
47882;SDS011;37739;50.350;7.578;2023-02-28T15:54:32;4.93;;;4.47;;
47882;SDS011;37739;50.350;7.578;2023-02-28T15:57:12;4.70;;;4.13;;
47882;SDS011;37739;50.350;7.578;2023-02-28T15:59:44;4.37;;;3.93;;
47882;SDS011;37739;50.350;7.578;2023-02-28T16:02:20;4.33;;;3.93;;
47882;SDS011;37739;50.350;7.578;2023-02-28T16:07:20;4.80;;;4.30;;
47882;SDS011;37739;50.350;7.578;2023-02-28T16:09:45;4.33;;;3.93;;
47882;SDS011;37739;50.350;7.578;2023-02-28T16:12:12;3.90;;;3.60;;
47882;SDS011;37739;50.350;7.578;2023-02-28T16:14:39;3.03;;;2.73;;
47882;SDS011;37739;50.350;7.578;2023-02-28T16:17:12;4.60;;;4.20;;
47882;SDS011;37739;50.350;7.578;2023-02-28T16:19:46;4.20;;;3.80;;
47882;SDS011;37739;50.350;7.578;2023-02-28T16:22:13;4.00;;;3.70;;
47882;SDS011;37739;50.350;7.578;2023-02-28T16:24:38;4.80;;;4.20;;
47882;SDS011;37739;50.350;7.578;2023-02-28T16:27:05;4.03;;;3.63;;
47882;SDS011;37739;50.350;7.578;2023-02-28T16:29:33;3.70;;;3.23;;
47882;SDS011;37739;50.350;7.578;2023-02-28T16:32:03;2.73;;;2.50;;
47882;SDS011;37739;50.350;7.578;2023-02-28T16:34:32;4.43;;;4.13;;
47882;SDS011;37739;50.350;7.578;2023-02-28T16:37:00;4.90;;;4.40;;
47882;SDS011;37739;50.350;7.578;2023-02-28T16:39:25;4.10;;;3.70;;
47882;SDS011;37739;50.350;7.578;2023-02-28T16:41:55;4.20;;;3.67;;
47882;SDS011;37739;50.350;7.578;2023-02-28T16:44:26;4.67;;;4.27;;
47882;SDS011;37739;50.350;7.578;2023-02-28T16:46:55;4.70;;;4.30;;
47882;SDS011;37739;50.350;7.578;2023-02-28T16:49:21;4.50;;;4.10;;
47882;SDS011;37739;50.350;7.578;2023-02-28T16:51:46;4.13;;;3.73;;
47882;SDS011;37739;50.350;7.578;2023-02-28T16:54:12;3.60;;;3.17;;
47882;SDS011;37739;50.350;7.578;2023-02-28T16:56:39;5.03;;;3.90;;
47882;SDS011;37739;50.350;7.578;2023-02-28T16:59:09;5.00;;;3.90;;
47882;SDS011;37739;50.350;7.578;2023-02-28T17:01:38;4.57;;;3.50;;
47882;SDS011;37739;50.350;7.578;2023-02-28T17:04:04;3.50;;;3.20;;
47882;SDS011;37739;50.350;7.578;2023-02-28T17:06:32;4.87;;;4.47;;
47882;SDS011;37739;50.350;7.578;2023-02-28T17:08:57;3.80;;;3.50;;
47882;SDS011;37739;50.350;7.578;2023-02-28T17:11:25;4.10;;;3.70;;
47882;SDS011;37739;50.350;7.578;2023-02-28T17:13:51;3.70;;;3.40;;
47882;SDS011;37739;50.350;7.578;2023-02-28T17:16:25;3.93;;;3.50;;
47882;SDS011;37739;50.350;7.578;2023-02-28T17:18:56;4.53;;;3.97;;
47882;SDS011;37739;50.350;7.578;2023-02-28T17:21:24;5.30;;;4.03;;
47882;SDS011;37739;50.350;7.578;2023-02-28T17:23:49;3.83;;;3.53;;
47882;SDS011;37739;50.350;7.578;2023-02-28T17:26:16;5.37;;;4.57;;
47882;SDS011;37739;50.350;7.578;2023-02-28T17:28:44;3.53;;;3.20;;
47882;SDS011;37739;50.350;7.578;2023-02-28T17:31:11;4.90;;;4.50;;
47882;SDS011;37739;50.350;7.578;2023-02-28T17:33:36;4.40;;;4.00;;
47882;SDS011;37739;50.350;7.578;2023-02-28T17:36:01;7.90;;;3.90;;
47882;SDS011;37739;50.350;7.578;2023-02-28T17:38:28;4.47;;;4.07;;
47882;SDS011;37739;50.350;7.578;2023-02-28T17:40:54;3.97;;;3.57;;
47882;SDS011;37739;50.350;7.578;2023-02-28T17:43:22;4.10;;;3.70;;
47882;SDS011;37739;50.350;7.578;2023-02-28T17:45:55;4.70;;;4.27;;